createdAt,value
2022-10-25T00:01:53.180Z,17.60
2022-10-25T00:06:48.427Z,17.60
2022-10-25T00:09:15.540Z,17.60
2022-10-25T00:11:43.418Z,17.60
2022-10-25T00:14:10.628Z,17.70
2022-10-25T00:16:38.870Z,17.70
2022-10-25T00:19:06.563Z,17.70
2022-10-25T00:21:33.852Z,17.70
2022-10-25T00:24:00.966Z,17.80
2022-10-25T00:26:28.256Z,17.80
2022-10-25T00:28:56.092Z,17.80
2022-10-25T00:31:24.461Z,17.70
2022-10-25T00:33:51.882Z,17.70
2022-10-25T00:36:27.897Z,17.60
2022-10-25T00:38:57.579Z,17.60
2022-10-25T00:41:28.041Z,17.50
2022-10-25T00:43:57.690Z,17.60
2022-10-25T00:46:31.741Z,17.50
2022-10-25T00:49:19.164Z,17.30
2022-10-25T00:51:52.424Z,17.30
2022-10-25T00:54:31.217Z,17.30
2022-10-25T00:57:03.571Z,17.30
2022-10-25T00:59:31.686Z,17.20
2022-10-25T01:02:00.653Z,17.20
2022-10-25T01:04:31.371Z,17.10
2022-10-25T01:06:59.541Z,17.10
2022-10-25T01:09:30.909Z,17.00
2022-10-25T01:11:58.482Z,16.90
2022-10-25T01:14:26.963Z,16.70
2022-10-25T01:16:59.686Z,16.60
2022-10-25T01:19:45.290Z,16.60
2022-10-25T01:22:36.509Z,16.60
2022-10-25T01:25:22.583Z,16.60
2022-10-25T01:28:14.537Z,16.60
2022-10-25T01:31:00.430Z,16.50
2022-10-25T01:33:59.817Z,16.60
2022-10-25T01:36:51.865Z,16.60
2022-10-25T01:39:41.060Z,16.50
2022-10-25T01:42:19.171Z,16.40
2022-10-25T01:45:03.980Z,16.40
2022-10-25T01:47:37.261Z,16.30
2022-10-25T01:50:13.250Z,16.20
2022-10-25T01:52:40.499Z,16.10
2022-10-25T01:55:11.817Z,16.00
2022-10-25T01:57:54.591Z,16.00
2022-10-25T02:00:23.645Z,16.00
2022-10-25T02:02:56.587Z,16.10
2022-10-25T02:05:41.847Z,16.10
2022-10-25T02:08:16.985Z,16.10
2022-10-25T02:11:23.021Z,16.20
2022-10-25T02:14:05.092Z,16.40
2022-10-25T02:16:40.621Z,16.30
2022-10-25T02:19:11.843Z,16.30
2022-10-25T02:21:40.629Z,16.30
2022-10-25T02:24:13.448Z,16.20
2022-10-25T02:26:43.433Z,16.20
2022-10-25T02:29:12.038Z,16.20
2022-10-25T02:31:39.476Z,16.20
2022-10-25T02:34:06.639Z,16.20
2022-10-25T02:36:34.102Z,16.20
2022-10-25T02:39:02.275Z,16.30
2022-10-25T02:41:29.527Z,16.30
2022-10-25T02:43:56.691Z,16.40
2022-10-25T02:46:24.549Z,16.30
2022-10-25T02:48:52.193Z,16.40
2022-10-25T02:51:19.611Z,16.40
2022-10-25T02:53:47.425Z,16.30
2022-10-25T02:56:17.475Z,16.20
2022-10-25T02:58:45.513Z,16.20
2022-10-25T03:01:13.928Z,16.20
2022-10-25T03:03:41.660Z,16.20
2022-10-25T03:06:10.754Z,16.30
2022-10-25T03:08:39.540Z,16.30
2022-10-25T03:11:09.100Z,16.30
2022-10-25T03:13:36.371Z,16.30
2022-10-25T03:16:04.102Z,16.30
2022-10-25T03:18:31.601Z,16.40
2022-10-25T03:21:00.215Z,16.30
2022-10-25T03:23:28.092Z,16.40
2022-10-25T03:25:56.633Z,16.40
2022-10-25T03:28:24.428Z,16.40
2022-10-25T03:30:51.546Z,16.50
2022-10-25T03:33:18.726Z,16.50
2022-10-25T03:35:49.210Z,16.50
2022-10-25T03:38:16.421Z,16.50
2022-10-25T03:40:43.770Z,16.60
2022-10-25T04:14:42.779Z,16.30
2022-10-25T04:17:14.107Z,16.30
2022-10-25T04:19:45.339Z,16.30
2022-10-25T04:22:16.805Z,16.20
2022-10-25T04:24:48.366Z,16.20
2022-10-25T04:27:20.798Z,16.20
2022-10-25T04:29:49.143Z,16.30
2022-10-25T04:34:54.167Z,16.20
2022-10-25T04:37:24.200Z,16.30
2022-10-25T04:39:55.879Z,16.30
2022-10-25T04:42:30.339Z,16.30
2022-10-25T04:45:00.147Z,16.30
2022-10-25T04:47:42.222Z,16.30
2022-10-25T04:50:10.917Z,16.30
2022-10-25T04:52:45.549Z,16.40
2022-10-25T04:55:16.245Z,16.40
2022-10-25T04:57:48.161Z,16.30
2022-10-25T05:00:15.961Z,16.30
2022-10-25T05:02:47.016Z,16.30
2022-10-25T05:05:17.920Z,16.30
2022-10-25T05:07:45.956Z,16.30
2022-10-25T05:10:16.516Z,16.40
2022-10-25T05:12:45.211Z,16.40
2022-10-25T05:15:16.938Z,16.30
2022-10-25T05:17:45.124Z,16.20
2022-10-25T05:20:15.561Z,16.10
2022-10-25T05:22:43.064Z,16.20
2022-10-25T05:25:15.120Z,16.20
2022-10-25T05:27:47.124Z,16.10
2022-10-25T05:30:17.613Z,16.20
2022-10-25T05:32:46.309Z,16.20
2022-10-25T05:35:16.452Z,16.20
2022-10-25T05:37:47.901Z,16.20
2022-10-25T05:40:19.016Z,16.20
2022-10-25T05:42:47.140Z,16.30
2022-10-25T05:45:15.745Z,16.40
2022-10-25T05:47:45.668Z,16.50
2022-10-25T05:50:13.239Z,16.60
2022-10-25T05:52:50.724Z,16.70
2022-10-25T05:55:19.252Z,16.70
2022-10-25T05:57:53.628Z,16.70
2022-10-25T06:00:26.686Z,16.70
2022-10-25T06:02:57.942Z,16.80
2022-10-25T06:05:27.666Z,16.80
2022-10-25T06:07:56.628Z,16.80
2022-10-25T06:10:26.015Z,16.80
2022-10-25T06:12:56.818Z,16.80
2022-10-25T06:15:26.281Z,16.90
2022-10-25T06:17:54.853Z,16.90
2022-10-25T06:20:29.191Z,16.90
2022-10-25T06:23:02.231Z,16.90
2022-10-25T06:25:31.571Z,16.90
2022-10-25T06:28:03.506Z,17.10
2022-10-25T06:30:36.766Z,16.90
2022-10-25T06:33:08.724Z,16.90
2022-10-25T06:35:39.700Z,16.90
2022-10-25T06:38:08.440Z,16.90
2022-10-25T06:40:41.451Z,16.80
2022-10-25T06:43:09.131Z,16.80
2022-10-25T06:45:40.134Z,16.80
2022-10-25T06:48:10.169Z,16.70
2022-10-25T06:50:39.465Z,16.80
2022-10-25T06:53:07.148Z,16.70
2022-10-25T06:55:39.037Z,16.70
2022-10-25T06:58:11.879Z,16.70
2022-10-25T07:00:43.702Z,16.70
2022-10-25T07:03:18.792Z,16.70
2022-10-25T07:05:49.240Z,16.70
2022-10-25T07:08:19.377Z,16.70
2022-10-25T07:10:54.938Z,16.70
2022-10-25T07:13:28.138Z,16.80
2022-10-25T07:16:08.635Z,16.80
2022-10-25T07:18:39.728Z,16.90
2022-10-25T07:21:16.534Z,16.90
2022-10-25T07:23:44.201Z,16.90
2022-10-25T07:26:15.129Z,17.00
2022-10-25T07:28:45.726Z,17.00
2022-10-25T07:31:21.820Z,17.00
2022-10-25T07:33:53.285Z,17.00
2022-10-25T07:36:22.037Z,17.00
2022-10-25T07:38:52.544Z,17.00
2022-10-25T07:41:21.615Z,17.20
2022-10-25T07:43:49.820Z,17.20
2022-10-25T07:46:17.128Z,17.30
2022-10-25T07:48:46.318Z,17.20
2022-10-25T07:51:19.865Z,17.20
2022-10-25T07:53:47.750Z,17.30
2022-10-25T07:56:23.348Z,17.40
2022-10-25T07:58:55.619Z,17.50
2022-10-25T08:01:28.356Z,17.70
2022-10-25T08:03:56.935Z,17.90
2022-10-25T08:06:26.518Z,18.00
2022-10-25T08:09:02.463Z,18.20
2022-10-25T08:11:53.965Z,18.40
2022-10-25T08:16:54.857Z,18.50
2022-10-25T08:19:25.538Z,18.60
2022-10-25T08:21:57.962Z,18.60
2022-10-25T08:24:33.971Z,18.60
2022-10-25T08:27:04.974Z,18.60
2022-10-25T08:29:40.287Z,18.60
2022-10-25T08:32:10.479Z,18.70
2022-10-25T08:34:42.277Z,18.80
2022-10-25T08:37:16.813Z,18.90
2022-10-25T08:39:46.405Z,18.90
2022-10-25T08:42:48.977Z,18.90
2022-10-25T08:45:42.100Z,19.00
2022-10-25T08:48:17.636Z,19.10
2022-10-25T08:50:54.357Z,19.20
2022-10-25T08:53:32.439Z,19.30
2022-10-25T08:56:19.467Z,19.40
2022-10-25T08:59:07.213Z,19.40
2022-10-25T09:01:47.236Z,19.30
2022-10-25T09:04:15.892Z,19.30
2022-10-25T09:06:50.652Z,19.20
2022-10-25T09:09:57.082Z,19.20
2022-10-25T09:12:45.923Z,19.10
2022-10-25T09:15:43.133Z,19.10
2022-10-25T09:19:28.643Z,19.10
2022-10-25T09:27:44.943Z,19.20
2022-10-25T09:30:19.218Z,19.20
2022-10-25T09:33:01.666Z,19.30
2022-10-25T09:36:06.534Z,19.30
2022-10-25T09:38:45.456Z,19.30
2022-10-25T09:41:39.781Z,19.30
2022-10-25T09:44:25.331Z,19.30
2022-10-25T09:47:16.966Z,19.20
2022-10-25T09:50:05.723Z,19.20
2022-10-25T09:53:20.330Z,19.10
2022-10-25T09:56:03.094Z,19.20
2022-10-25T09:58:40.706Z,19.10
2022-10-25T10:01:28.469Z,19.10
2022-10-25T10:04:37.168Z,19.20
2022-10-25T10:07:20.393Z,19.30
2022-10-25T10:09:52.331Z,19.40
2022-10-25T10:12:43.564Z,19.50
2022-10-25T10:15:22.681Z,19.70
2022-10-25T10:18:28.004Z,19.80
2022-10-25T10:21:16.793Z,19.80
2022-10-25T10:24:07.534Z,19.90
2022-10-25T10:26:51.162Z,19.90
2022-10-25T10:29:32.271Z,19.80
2022-10-25T10:32:07.808Z,19.80
2022-10-25T10:34:51.015Z,19.70
2022-10-25T10:37:24.900Z,19.60
2022-10-25T10:40:06.934Z,19.60
2022-10-25T10:42:52.885Z,19.70
2022-10-25T10:45:26.897Z,19.90
2022-10-25T10:48:08.930Z,20.00
2022-10-25T10:50:38.200Z,20.00
2022-10-25T10:53:32.674Z,20.00
2022-10-25T10:56:08.439Z,20.10
2022-10-25T10:58:53.410Z,20.20
2022-10-25T11:01:41.164Z,20.20
2022-10-25T11:04:09.544Z,20.20
2022-10-25T11:06:37.426Z,20.30
2022-10-25T11:09:26.543Z,20.50
2022-10-25T11:12:19.627Z,20.80
2022-10-25T11:14:50.272Z,20.80
2022-10-25T11:17:39.188Z,20.80
2022-10-25T11:20:28.135Z,20.70
2022-10-25T11:23:21.996Z,20.70
2022-10-25T11:26:25.500Z,20.70
2022-10-25T11:29:33.354Z,21.00
2022-10-25T11:32:38.978Z,21.20
2022-10-25T11:35:42.337Z,21.40
2022-10-25T11:38:52.757Z,21.40
2022-10-25T11:41:38.128Z,21.50
2022-10-25T11:44:26.153Z,21.70
2022-10-25T11:47:27.114Z,21.80
2022-10-25T11:50:24.522Z,21.80
2022-10-25T11:53:02.771Z,21.80
2022-10-25T11:55:57.388Z,21.60
2022-10-25T11:58:48.028Z,21.60
2022-10-25T12:01:59.169Z,21.60
2022-10-25T12:04:53.695Z,21.60
2022-10-25T12:07:52.660Z,21.80
2022-10-25T12:10:42.402Z,22.00
2022-10-25T12:13:18.339Z,22.10
2022-10-25T12:15:52.214Z,22.20
2022-10-25T12:18:47.661Z,22.20
2022-10-25T12:21:33.821Z,22.10
2022-10-25T12:24:05.392Z,22.20
2022-10-25T12:26:36.156Z,22.20
2022-10-25T12:29:11.074Z,22.30
2022-10-25T12:31:57.464Z,22.30
2022-10-25T12:34:53.307Z,22.10
2022-10-25T12:37:45.098Z,22.60
2022-10-25T12:40:19.645Z,23.00
2022-10-25T12:42:59.149Z,23.80
2022-10-25T12:45:52.557Z,24.80
2022-10-25T12:49:04.117Z,26.80
2022-10-25T12:52:10.764Z,29.00
2022-10-25T12:55:20.340Z,30.70
2022-10-25T12:58:08.036Z,31.50
2022-10-25T13:01:04.181Z,32.20
2022-10-25T13:03:52.265Z,32.80
2022-10-25T13:06:43.479Z,33.40
2022-10-25T13:09:16.475Z,33.30
2022-10-25T13:12:15.070Z,33.90
2022-10-25T13:14:51.966Z,33.50
2022-10-25T13:17:22.126Z,32.80
2022-10-25T13:19:57.540Z,33.10
2022-10-25T13:22:38.182Z,33.20
2022-10-25T13:25:31.951Z,34.50
2022-10-25T13:28:14.596Z,34.40
2022-10-25T13:30:45.277Z,32.00
2022-10-25T13:33:28.342Z,31.30
2022-10-25T13:36:01.708Z,31.10
2022-10-25T13:38:40.136Z,29.80
2022-10-25T13:41:18.104Z,28.70
2022-10-25T13:44:04.830Z,28.90
2022-10-25T13:46:40.348Z,29.60
2022-10-25T13:49:40.084Z,29.60
2022-10-25T13:52:25.141Z,28.70
2022-10-25T13:54:58.747Z,27.30
2022-10-25T13:58:03.827Z,25.60
2022-10-25T14:00:33.899Z,24.40
2022-10-25T14:03:37.357Z,23.70
2022-10-25T14:06:16.167Z,23.00
2022-10-25T14:09:16.457Z,22.50
2022-10-25T14:12:08.882Z,22.10
2022-10-25T14:15:03.387Z,21.70
2022-10-25T14:17:43.187Z,21.30
2022-10-25T14:20:33.280Z,21.20
2022-10-25T14:23:14.097Z,21.10
2022-10-25T14:25:49.000Z,20.90
2022-10-25T14:28:24.532Z,20.80
2022-10-25T14:31:30.309Z,20.70
2022-10-25T14:34:00.401Z,20.70
2022-10-25T14:36:33.589Z,20.70
2022-10-25T14:39:27.255Z,20.60
2022-10-25T14:42:08.423Z,20.60
2022-10-25T14:44:48.865Z,20.60
2022-10-25T14:47:34.599Z,20.50
2022-10-25T14:52:38.751Z,20.40
2022-10-25T14:55:10.839Z,20.20
2022-10-25T14:57:39.376Z,20.20
2022-10-25T15:00:19.267Z,20.10
2022-10-25T15:02:52.655Z,20.10
2022-10-25T15:05:25.914Z,20.00
2022-10-25T15:08:00.958Z,19.90
2022-10-25T15:10:47.563Z,19.90
2022-10-25T15:13:32.900Z,19.90
2022-10-25T15:16:24.990Z,19.80
2022-10-25T15:19:20.101Z,19.70
2022-10-25T15:21:51.060Z,19.60
2022-10-25T15:24:28.598Z,19.60
2022-10-25T15:27:08.443Z,19.60
2022-10-25T15:29:51.013Z,19.60
2022-10-25T15:32:23.862Z,19.60
2022-10-25T15:34:58.556Z,19.60
2022-10-25T15:37:34.858Z,19.60
2022-10-25T15:40:05.254Z,19.60
2022-10-25T15:42:35.797Z,19.50
2022-10-25T15:45:05.289Z,19.50
2022-10-25T15:47:40.960Z,19.40
2022-10-25T15:50:22.265Z,19.40
2022-10-25T15:52:51.048Z,19.40
2022-10-25T15:55:25.205Z,19.40
2022-10-25T15:57:52.786Z,19.30
2022-10-25T16:00:28.445Z,19.40
2022-10-25T16:02:59.857Z,19.40
2022-10-25T16:05:34.803Z,19.30
2022-10-25T16:08:09.067Z,19.40
2022-10-25T16:10:40.023Z,19.40
2022-10-25T16:13:14.295Z,19.30
2022-10-25T16:15:42.825Z,19.30
2022-10-25T16:18:11.739Z,19.30
2022-10-25T16:20:40.116Z,19.20
2022-10-25T16:23:09.121Z,19.20
2022-10-25T16:25:39.306Z,19.20
2022-10-25T16:28:09.155Z,19.10
2022-10-25T16:30:40.548Z,19.10
2022-10-25T16:33:14.109Z,19.20
2022-10-25T16:35:42.580Z,19.20
2022-10-25T16:38:13.215Z,19.20
2022-10-25T16:40:41.294Z,19.20
2022-10-25T16:43:12.634Z,19.10
2022-10-25T16:45:44.528Z,19.10
2022-10-25T16:48:11.844Z,19.10
2022-10-25T16:50:41.134Z,19.00
2022-10-25T16:53:11.847Z,19.10
2022-10-25T16:55:40.258Z,19.00
2022-10-25T16:58:12.544Z,19.00
2022-10-25T17:00:40.311Z,19.00
2022-10-25T17:03:09.248Z,18.80
2022-10-25T17:05:39.820Z,18.80
2022-10-25T17:08:10.401Z,18.70
2022-10-25T17:10:43.804Z,18.70
2022-10-25T17:13:16.541Z,18.70
2022-10-25T17:15:44.962Z,18.60
2022-10-25T17:18:17.307Z,18.70
2022-10-25T17:20:45.696Z,18.70
2022-10-25T17:23:15.370Z,18.70
2022-10-25T17:25:46.972Z,18.80
2022-10-25T17:28:19.624Z,18.80
2022-10-25T17:30:48.633Z,18.80
2022-10-25T17:33:19.238Z,18.90
2022-10-25T17:35:50.674Z,18.90
2022-10-25T17:38:21.073Z,18.90
2022-10-25T17:40:48.807Z,18.80
2022-10-25T17:43:19.442Z,18.80
2022-10-25T17:45:49.901Z,18.80
2022-10-25T17:48:18.900Z,18.80
2022-10-25T17:50:52.359Z,18.80
2022-10-25T17:53:21.797Z,18.80
2022-10-25T17:55:50.914Z,18.80
2022-10-25T17:58:21.176Z,18.80
2022-10-25T18:00:50.164Z,18.80
2022-10-25T18:03:21.644Z,18.80
2022-10-25T18:05:50.832Z,18.80
2022-10-25T18:08:22.759Z,18.80
2022-10-25T18:10:53.763Z,18.80
2022-10-25T18:13:24.901Z,18.70
2022-10-25T18:15:53.247Z,18.70
2022-10-25T18:18:26.219Z,18.70
2022-10-25T18:20:54.926Z,18.70
2022-10-25T18:23:23.124Z,18.70
2022-10-25T18:28:28.339Z,18.70
2022-10-25T18:31:11.418Z,18.70
2022-10-25T18:33:43.992Z,18.60
2022-10-25T18:36:20.240Z,18.40
2022-10-25T18:38:51.746Z,18.40
2022-10-25T18:41:25.550Z,18.40
2022-10-25T18:43:55.626Z,18.30
2022-10-25T18:46:38.643Z,18.20
2022-10-25T18:49:08.203Z,18.20
2022-10-25T18:51:39.670Z,18.20
2022-10-25T18:54:11.972Z,18.20
2022-10-25T18:56:46.211Z,18.30
2022-10-25T18:59:18.038Z,18.30
2022-10-25T19:01:47.057Z,18.30
2022-10-25T19:04:16.213Z,18.20
2022-10-25T19:06:45.023Z,18.20
2022-10-25T19:09:15.075Z,18.20
2022-10-25T19:11:42.205Z,18.10
2022-10-25T19:14:13.320Z,18.10
2022-10-25T19:16:45.126Z,18.10
2022-10-25T19:19:15.172Z,18.10
2022-10-25T19:21:45.787Z,18.10
2022-10-25T19:24:16.661Z,18.10
2022-10-25T19:26:45.900Z,18.10
2022-10-25T19:29:15.192Z,18.20
2022-10-25T19:31:56.602Z,18.20
2022-10-25T19:34:27.728Z,18.20
2022-10-25T19:36:56.804Z,18.10
2022-10-25T19:39:25.998Z,17.90
2022-10-25T19:41:53.993Z,17.70
2022-10-25T19:44:26.190Z,17.70
2022-10-25T19:46:54.122Z,17.60
2022-10-25T19:49:24.497Z,17.70
2022-10-25T19:51:53.671Z,17.70
2022-10-25T19:54:24.822Z,17.70
2022-10-25T19:56:52.029Z,17.70
2022-10-25T20:02:06.368Z,17.70
2022-10-25T20:04:36.744Z,17.70
2022-10-25T20:07:05.754Z,17.80
2022-10-25T20:09:35.001Z,17.60
2022-10-25T20:12:06.921Z,17.60
2022-10-25T20:14:38.770Z,17.60
2022-10-25T20:17:06.612Z,17.60
2022-10-25T20:19:34.138Z,17.60
2022-10-25T20:22:05.523Z,17.50
2022-10-25T20:24:36.147Z,17.50
2022-10-25T20:27:07.129Z,17.50
2022-10-25T20:29:35.052Z,17.40
2022-10-25T20:32:05.624Z,17.40
2022-10-25T20:34:35.340Z,17.40
2022-10-25T20:37:06.807Z,17.40
2022-10-25T20:39:35.232Z,17.40
2022-10-25T20:42:07.485Z,17.40
2022-10-25T20:44:44.481Z,17.40
2022-10-25T20:47:12.018Z,17.40
2022-10-25T20:49:41.544Z,17.40
2022-10-25T20:52:13.004Z,17.40
2022-10-25T20:54:44.261Z,17.40
2022-10-25T20:57:12.137Z,17.30
2022-10-25T20:59:43.722Z,17.40
2022-10-25T21:02:16.159Z,17.40
2022-10-25T21:04:53.861Z,17.30
2022-10-25T21:07:24.145Z,17.30
2022-10-25T21:09:52.591Z,17.30
2022-10-25T21:12:20.230Z,17.30
2022-10-25T21:14:52.730Z,17.30
2022-10-25T21:17:22.604Z,17.30
2022-10-25T21:19:53.800Z,17.30
2022-10-25T21:22:21.275Z,17.20
2022-10-25T21:24:52.483Z,17.20
2022-10-25T21:27:20.265Z,17.20
2022-10-25T21:29:49.276Z,17.20
2022-10-25T21:32:19.801Z,17.10
2022-10-25T21:34:51.853Z,17.10
2022-10-25T21:37:27.718Z,17.10
2022-10-25T21:39:57.369Z,17.10
2022-10-25T21:42:27.321Z,17.00
2022-10-25T21:45:00.783Z,16.90
2022-10-25T21:47:33.151Z,16.90
2022-10-25T21:50:09.272Z,16.90
2022-10-25T21:52:40.053Z,16.90
2022-10-25T21:55:11.804Z,16.90
2022-10-25T21:57:51.839Z,16.90
2022-10-25T22:00:22.635Z,16.80
2022-10-25T22:02:54.730Z,16.80
2022-10-25T22:05:23.741Z,16.80
2022-10-25T22:07:54.262Z,16.70
2022-10-25T22:10:24.684Z,16.60
2022-10-25T22:12:56.035Z,16.60
2022-10-25T22:15:28.085Z,16.50
2022-10-25T22:17:56.140Z,16.50
2022-10-25T22:20:24.193Z,16.40
2022-10-25T22:23:01.071Z,16.40
2022-10-25T22:25:31.750Z,16.40
2022-10-25T22:28:01.831Z,16.30
2022-10-25T22:30:30.479Z,16.30
2022-10-25T22:32:58.349Z,16.30
2022-10-25T22:35:28.464Z,16.30
2022-10-25T22:38:00.859Z,16.20
2022-10-25T22:40:33.692Z,16.20
2022-10-25T22:43:17.808Z,16.20
2022-10-25T22:45:48.010Z,16.10
2022-10-25T22:48:16.608Z,16.10
2022-10-25T22:50:52.526Z,16.10
2022-10-25T22:53:23.253Z,16.10
2022-10-25T22:56:07.885Z,16.00
2022-10-25T22:58:45.522Z,16.00
2022-10-25T23:01:17.883Z,15.90
2022-10-25T23:03:49.451Z,15.90
2022-10-25T23:06:21.757Z,15.90
2022-10-25T23:08:55.292Z,15.90
2022-10-25T23:11:27.818Z,15.90
2022-10-25T23:13:56.787Z,15.90
2022-10-25T23:16:27.449Z,15.90
2022-10-25T23:18:57.628Z,15.90
2022-10-25T23:21:27.512Z,15.90
2022-10-25T23:24:01.000Z,15.90
2022-10-25T23:26:34.951Z,15.90
2022-10-25T23:29:05.534Z,15.80
2022-10-25T23:32:03.074Z,15.80
2022-10-25T23:34:36.793Z,15.80
2022-10-25T23:37:05.851Z,15.70
2022-10-25T23:39:36.760Z,15.70
2022-10-25T23:42:07.605Z,15.70
2022-10-25T23:44:38.543Z,15.80
2022-10-25T23:47:07.495Z,15.80
2022-10-25T23:49:35.396Z,15.90
2022-10-25T23:52:06.989Z,15.80
2022-10-25T23:54:36.855Z,15.90
2022-10-25T23:57:06.616Z,15.80
2022-10-25T23:59:37.026Z,15.90
